Time;durP1;ratioP1;P1;durP2;ratioP2;P2;SDS_P1;SDS_P2;PMS_P1;PMS_P2;Temp;Humidity;BMP_temperature;BMP_pressure;BME280_temperature;BME280_humidity;BME280_pressure;Samples;Min_cycle;Max_cycle;Signal;HPM_P1;HPM_P2
2021/09/25 00:00:57;;;;;;;6.50;3.87;;;;;;;13.58;75.47;99536.45;253878;1107;115953;-69
2021/09/25 00:06:01;;;;;;;8.40;4.43;;;;;;;13.61;75.24;99537.80;254453;1106;116160;-68
2021/09/25 00:11:05;;;;;;;3.90;3.30;;;;;;;13.67;75.20;99539.45;255316;1107;116191;-69
2021/09/25 00:16:11;;;;;;;5.20;3.73;;;;;;;13.69;75.01;99543.48;256145;1107;115535;-69
2021/09/25 00:21:15;;;;;;;8.38;3.80;;;;;;;13.72;75.57;99545.65;255429;1106;115893;-69
2021/09/25 00:26:19;;;;;;;5.58;4.15;;;;;;;13.76;75.63;99538.68;254798;1107;116003;-68
2021/09/25 00:31:23;;;;;;;6.03;4.78;;;;;;;13.76;75.24;99536.00;255220;1107;116066;-68
2021/09/25 00:36:26;;;;;;;12.25;4.65;;;;;;;13.80;75.16;99536.29;256219;1107;115872;-68
2021/09/25 00:41:30;;;;;;;6.63;3.20;;;;;;;13.81;75.35;99536.03;255862;1107;115715;-69
2021/09/25 00:46:33;;;;;;;6.80;4.03;;;;;;;13.87;75.60;99533.38;256201;1107;116245;-68
2021/09/25 00:51:36;;;;;;;9.60;4.45;;;;;;;13.96;75.00;99531.83;254920;1107;138082;-68
2021/09/25 00:56:45;;;;;;;6.63;3.30;;;;;;;13.95;75.42;99527.53;254905;1101;115966;-68
2021/09/25 01:01:48;;;;;;;4.95;3.98;;;;;;;13.94;74.99;99517.88;255049;1106;115482;-68
2021/09/25 01:06:52;;;;;;;3.85;3.43;;;;;;;14.00;74.88;99522.20;253692;1107;115828;-68
2021/09/25 01:11:56;;;;;;;4.23;3.60;;;;;;;14.03;75.11;99532.39;254560;1107;115561;-68
2021/09/25 01:17:12;;;;;;;4.75;3.00;;;;;;;14.01;75.24;99532.66;254397;1107;115945;-68
2021/09/25 01:22:16;;;;;;;9.10;4.33;;;;;;;14.00;75.43;99539.08;253928;1102;116001;-68
2021/09/25 01:27:19;;;;;;;6.65;4.75;;;;;;;14.02;75.17;99544.19;253818;1107;116598;-68
2021/09/25 01:32:22;;;;;;;5.55;4.63;;;;;;;14.02;74.97;99539.63;254463;1107;114902;-69
2021/09/25 01:37:26;;;;;;;5.40;4.43;;;;;;;14.01;75.43;99539.89;253982;1107;115025;-68
2021/09/25 01:42:29;;;;;;;6.68;4.38;;;;;;;13.98;75.45;99546.58;253481;1106;115163;-66
2021/09/25 01:47:33;;;;;;;5.25;4.73;;;;;;;13.97;75.41;99542.28;253480;1107;115447;-68
2021/09/25 01:52:37;;;;;;;6.75;4.25;;;;;;;13.97;75.63;99538.80;253737;1106;115711;-67
2021/09/25 01:57:40;;;;;;;5.23;3.58;;;;;;;13.98;75.74;99530.50;253857;1107;116596;-68
2021/09/25 02:02:44;;;;;;;4.65;3.50;;;;;;;13.97;75.48;99533.44;253629;1107;117683;-67
2021/09/25 02:07:49;;;;;;;12.38;4.33;;;;;;;13.97;75.74;99522.72;254968;1106;118620;-68
2021/09/25 02:12:53;;;;;;;9.13;5.58;;;;;;;13.97;75.85;99522.72;254960;1107;116307;-68
2021/09/25 02:17:56;;;;;;;5.55;4.35;;;;;;;13.98;75.97;99527.02;254943;1107;115515;-67
2021/09/25 02:23:00;;;;;;;4.63;3.78;;;;;;;14.00;76.16;99527.56;255626;1107;116145;-68
2021/09/25 02:28:03;;;;;;;6.83;4.60;;;;;;;14.03;76.03;99519.00;256486;1107;115464;-68
2021/09/25 02:33:07;;;;;;;5.78;4.03;;;;;;;14.04;75.84;99516.05;255475;1103;114928;-67
2021/09/25 02:38:11;;;;;;;9.90;5.33;;;;;;;14.11;75.99;99518.47;256296;1107;115194;-67
2021/09/25 02:43:14;;;;;;;6.73;3.93;;;;;;;14.17;75.74;99520.10;256290;1107;115500;-67
2021/09/25 02:48:17;;;;;;;8.05;4.90;;;;;;;14.20;75.77;99516.90;256308;1106;117316;-66
2021/09/25 02:53:20;;;;;;;10.98;5.75;;;;;;;14.24;75.65;99523.34;254772;1107;115815;-65
2021/09/25 02:58:26;;;;;;;6.40;4.85;;;;;;;14.28;75.92;99527.12;253694;1107;115610;-69
2021/09/25 03:03:29;;;;;;;8.43;5.65;;;;;;;14.27;76.31;99530.87;253961;1107;115648;-67
2021/09/25 03:08:36;;;;;;;7.20;3.83;;;;;;;14.27;76.22;99538.10;254300;1107;115075;-68
2021/09/25 03:13:39;;;;;;;7.38;5.63;;;;;;;14.26;76.17;99536.49;254068;1107;115098;-68
2021/09/25 03:18:41;;;;;;;8.33;5.50;;;;;;;14.28;76.24;99537.84;253984;1107;115762;-68
2021/09/25 03:23:45;;;;;;;5.77;5.17;;;;;;;14.35;76.39;99545.64;255435;1107;116131;-67
2021/09/25 03:28:48;;;;;;;7.25;4.88;;;;;;;14.38;76.61;99542.41;254680;1107;115165;-67
2021/09/25 03:33:52;;;;;;;7.88;5.65;;;;;;;14.41;76.15;99539.23;253517;1107;116399;-68
2021/09/25 03:38:55;;;;;;;9.13;5.40;;;;;;;14.40;76.13;99543.75;254083;1107;116000;-66
2021/09/25 03:44:02;;;;;;;7.90;5.18;;;;;;;14.38;76.35;99537.84;253893;1107;115796;-66
2021/09/25 03:49:06;;;;;;;7.23;5.88;;;;;;;14.38;76.38;99537.84;254115;1107;115880;-67
2021/09/25 03:54:10;;;;;;;11.38;5.68;;;;;;;14.40;76.43;99541.08;254631;1106;115779;-67
2021/09/25 03:59:15;;;;;;;8.85;5.90;;;;;;;14.46;76.11;99533.89;254121;1102;115987;-68
2021/09/25 04:04:19;;;;;;;4.73;4.30;;;;;;;14.45;76.56;99537.64;253568;1106;115808;-68
2021/09/25 04:09:22;;;;;;;16.40;6.38;;;;;;;14.41;76.61;99534.67;254980;1107;115921;-68
2021/09/25 04:14:26;;;;;;;8.98;7.25;;;;;;;14.43;76.27;99543.27;253633;1107;115923;-70
2021/09/25 04:19:29;;;;;;;12.50;6.87;;;;;;;14.44;76.90;99538.70;253664;1107;115547;-68
2021/09/25 04:24:35;;;;;;;8.28;6.73;;;;;;;14.49;76.65;99536.84;253244;1107;115711;-68
2021/09/25 04:29:39;;;;;;;14.40;7.30;;;;;;;14.53;76.62;99530.95;254645;1107;115610;-68
2021/09/25 04:34:42;;;;;;;8.27;6.30;;;;;;;14.51;76.48;99533.09;255205;1107;115114;-67
2021/09/25 04:39:45;;;;;;;12.23;7.80;;;;;;;14.54;76.65;99532.56;256371;1106;114771;-68
2021/09/25 04:44:48;;;;;;;12.23;8.05;;;;;;;14.60;76.45;99536.88;256155;1107;116219;-68
2021/09/25 04:49:51;;;;;;;7.03;6.30;;;;;;;14.65;76.53;99548.43;255524;1107;115554;-68
2021/09/25 04:54:57;;;;;;;10.60;8.10;;;;;;;14.71;77.11;99544.66;254393;1107;115090;-67
2021/09/25 05:00:00;;;;;;;17.05;8.45;;;;;;;14.71;76.70;99543.84;253971;1107;115417;-67
2021/09/25 05:05:06;;;;;;;8.78;7.78;;;;;;;14.71;76.77;99547.34;255046;1107;115392;-67
2021/09/25 05:10:10;;;;;;;10.73;7.48;;;;;;;14.74;77.06;99548.69;256026;1107;115082;-67
2021/09/25 05:15:14;;;;;;;12.30;7.50;;;;;;;14.81;76.86;99549.23;254320;1103;115303;-67
2021/09/25 05:20:16;;;;;;;11.40;8.00;;;;;;;14.82;76.50;99564.27;253387;1107;115873;-67
2021/09/25 05:25:19;;;;;;;12.20;8.25;;;;;;;14.80;76.77;99558.36;254788;1107;115416;-68
2021/09/25 05:30:22;;;;;;;13.60;8.27;;;;;;;14.85;76.99;99569.11;253584;1107;115897;-67
2021/09/25 05:35:25;;;;;;;7.60;6.80;;;;;;;14.94;77.11;99572.08;253608;1107;115257;-67
2021/09/25 05:40:28;;;;;;;12.13;8.73;;;;;;;14.97;76.75;99572.35;253740;1101;117257;-68
2021/09/25 05:45:31;;;;;;;7.98;5.90;;;;;;;15.02;76.83;99575.02;254508;1101;116183;-68
2021/09/25 05:50:34;;;;;;;13.73;9.15;;;;;;;15.08;77.09;99581.20;253934;1107;115973;-68
2021/09/25 05:55:40;;;;;;;19.17;8.70;;;;;;;15.14;77.02;99575.57;253626;1107;116326;-68
2021/09/25 06:00:43;;;;;;;12.15;8.00;;;;;;;15.20;76.91;99568.33;252946;1107;115973;-67
2021/09/25 06:05:45;;;;;;;12.05;9.28;;;;;;;15.33;76.95;99585.76;253206;1107;115979;-67
2021/09/25 06:10:48;;;;;;;9.30;7.20;;;;;;;15.42;77.09;99581.46;253380;1107;115835;-67
2021/09/25 06:15:51;;;;;;;10.83;6.68;;;;;;;15.46;76.91;99577.97;253639;1107;118371;-69
2021/09/25 06:20:54;;;;;;;8.73;7.93;;;;;;;15.55;77.02;99588.18;253658;1107;116278;-68
2021/09/25 06:25:57;;;;;;;11.75;7.60;;;;;;;15.64;76.98;99581.19;254595;1107;116094;-68
2021/09/25 06:31:02;;;;;;;10.00;7.40;;;;;;;15.79;76.89;99592.73;253617;1107;115958;-68
2021/09/25 06:36:06;;;;;;;10.05;9.00;;;;;;;15.94;76.88;99593.75;254328;1107;116116;-68
2021/09/25 06:41:09;;;;;;;9.38;8.05;;;;;;;16.19;76.77;99599.08;255990;1107;115601;-67
2021/09/25 06:46:13;;;;;;;12.15;9.50;;;;;;;16.37;76.25;99598.45;253394;1101;115779;-67
2021/09/25 06:51:17;;;;;;;9.98;8.28;;;;;;;16.61;76.19;99597.78;254198;1103;115959;-67
2021/09/25 06:56:20;;;;;;;8.75;7.75;;;;;;;16.76;76.06;99606.63;254271;1107;115560;-68
2021/09/25 07:01:24;;;;;;;9.53;7.85;;;;;;;16.83;75.90;99612.48;254703;1107;116613;-69
2021/09/25 07:06:28;;;;;;;9.84;7.32;;;;;;;17.00;75.52;99600.55;253490;1107;117441;-68
2021/09/25 07:11:31;;;;;;;10.20;8.50;;;;;;;17.21;75.42;99598.50;254140;1107;116383;-67
2021/09/25 07:16:36;;;;;;;8.10;7.28;;;;;;;17.33;75.31;99607.03;254683;1107;116082;-68
2021/09/25 07:21:39;;;;;;;11.53;8.13;;;;;;;17.32;75.64;99608.12;254537;1107;116997;-69
2021/09/25 07:26:42;;;;;;;11.58;7.60;;;;;;;17.34;74.79;99619.41;253917;1106;117735;-68
2021/09/25 07:31:46;;;;;;;12.00;8.93;;;;;;;17.36;74.79;99620.75;253764;1107;204250;-67
2021/09/25 07:36:49;;;;;;;11.73;9.00;;;;;;;17.40;74.77;99620.98;253992;1106;116421;-67
2021/09/25 07:41:52;;;;;;;12.63;8.85;;;;;;;17.45;74.56;99635.20;254494;1107;115956;-67
2021/09/25 07:46:56;;;;;;;11.65;8.20;;;;;;;17.53;74.68;99633.80;253962;1107;115796;-67
2021/09/25 07:52:00;;;;;;;12.70;9.50;;;;;;;17.66;74.32;99640.47;254070;1103;115716;-67
2021/09/25 07:57:04;;;;;;;9.63;8.13;;;;;;;17.81;74.22;99656.48;254331;1106;115928;-68
2021/09/25 08:02:07;;;;;;;9.97;8.97;;;;;;;17.93;74.06;99656.12;253578;1107;115411;-69
2021/09/25 08:07:11;;;;;;;10.43;9.00;;;;;;;18.05;73.88;99659.21;253370;1107;115627;-68
2021/09/25 08:12:14;;;;;;;10.58;9.05;;;;;;;18.13;73.92;99663.98;254549;1107;117844;-69
2021/09/25 08:17:18;;;;;;;12.37;10.50;;;;;;;18.14;73.46;99673.69;253187;1107;115891;-67
2021/09/25 08:22:22;;;;;;;10.68;9.58;;;;;;;18.14;73.27;99666.41;253569;1106;116307;-67
2021/09/25 08:27:25;;;;;;;12.43;10.05;;;;;;;18.09;73.23;99673.73;255816;1107;116103;-67
2021/09/25 08:32:29;;;;;;;15.43;8.85;;;;;;;18.08;73.28;99675.63;256265;1106;115944;-68
2021/09/25 08:37:32;;;;;;;19.65;9.50;;;;;;;18.04;73.08;99684.58;253530;1107;115759;-67
2021/09/25 08:42:36;;;;;;;9.88;8.95;;;;;;;18.12;72.99;99678.56;254613;1107;117179;-68
2021/09/25 08:47:39;;;;;;;12.08;9.85;;;;;;;18.09;72.83;99682.64;256295;1107;115454;-68
2021/09/25 08:52:42;;;;;;;11.48;9.48;;;;;;;18.10;72.83;99689.64;255602;1107;114835;-67
2021/09/25 08:57:46;;;;;;;15.78;11.73;;;;;;;18.09;72.38;99684.53;254727;1107;115672;-66
2021/09/25 09:02:49;;;;;;;12.80;11.13;;;;;;;18.09;72.88;99692.63;255259;1107;115823;-66
2021/09/25 09:07:52;;;;;;;13.97;10.37;;;;;;;18.17;72.89;99695.52;254768;1107;115699;-67
2021/09/25 09:12:55;;;;;;;17.28;12.33;;;;;;;18.18;72.84;99696.31;253947;1107;114922;-67
2021/09/25 09:18:01;;;;;;;12.43;11.23;;;;;;;18.23;72.96;99698.97;253583;1107;116034;-66
2021/09/25 09:23:12;;;;;;;15.83;11.23;;;;;;;18.34;72.99;99700.48;253119;1107;115797;-69
2021/09/25 09:28:25;;;;;;;11.28;10.30;;;;;;;18.49;72.26;99696.78;253321;1107;115394;-67
2021/09/25 09:33:34;;;;;;;12.88;9.28;;;;;;;18.67;72.69;99693.34;253598;1106;115916;-66
2021/09/25 09:39:03;;;;;;;9.65;7.08;;;;;;;18.78;72.04;99691.34;254180;1107;116279;-67
2021/09/25 09:44:16;;;;;;;12.13;10.93;;;;;;;18.73;71.81;99703.00;253933;1107;115681;-67
2021/09/25 09:49:23;;;;;;;15.13;9.93;;;;;;;18.71;71.90;99704.38;253570;1107;116017;-67
2021/09/25 09:54:30;;;;;;;11.33;10.15;;;;;;;18.80;72.13;99708.05;254145;1107;115787;-67
2021/09/25 09:59:33;;;;;;;14.33;9.85;;;;;;;18.88;71.81;99703.91;254338;1107;116320;-67
2021/09/25 10:04:39;;;;;;;11.47;10.30;;;;;;;19.23;71.98;99705.33;253410;1107;115558;-68
2021/09/25 10:09:42;;;;;;;11.25;10.10;;;;;;;19.77;71.84;99700.17;254210;1107;116288;-68
2021/09/25 10:14:48;;;;;;;11.13;10.05;;;;;;;19.94;70.91;99694.19;255583;1107;115788;-67
2021/09/25 10:19:54;;;;;;;14.95;10.75;;;;;;;20.12;70.66;99711.48;254872;1107;115653;-67
2021/09/25 10:25:07;;;;;;;11.35;10.33;;;;;;;20.02;70.02;99720.56;254539;1107;115750;-67
2021/09/25 10:30:12;;;;;;;9.83;9.03;;;;;;;19.95;69.98;99714.73;254096;1106;116716;-67
2021/09/25 10:35:18;;;;;;;13.55;11.55;;;;;;;19.92;69.96;99722.64;256364;1107;114814;-68
2021/09/25 10:40:29;;;;;;;13.53;9.98;;;;;;;19.93;69.92;99718.83;256379;1107;115158;-67
2021/09/25 10:45:36;;;;;;;10.90;9.80;;;;;;;20.06;69.82;99734.31;256172;1106;116383;-68
2021/09/25 10:50:50;;;;;;;10.20;9.18;;;;;;;19.95;69.34;99732.87;256449;1107;115508;-68
2021/09/25 10:55:59;;;;;;;11.30;10.23;;;;;;;19.69;69.32;99738.70;256351;1107;117256;-67
2021/09/25 11:01:18;;;;;;;13.33;9.80;;;;;;;19.49;69.03;99742.50;255032;1107;115713;-68
2021/09/25 11:06:49;;;;;;;9.73;7.90;;;;;;;19.24;69.18;99759.09;254383;1102;118314;-68
2021/09/25 11:11:58;;;;;;;11.45;9.23;;;;;;;19.15;69.94;99752.72;254978;1106;116114;-68
2021/09/25 11:17:08;;;;;;;11.38;9.65;;;;;;;19.11;70.23;99757.89;254692;1100;115808;-69
2021/09/25 11:22:23;;;;;;;11.38;10.38;;;;;;;18.98;70.42;99772.09;254591;1107;115436;-67
2021/09/25 11:27:37;;;;;;;14.33;12.03;;;;;;;18.74;70.63;99782.11;255268;1106;115933;-70
2021/09/25 11:32:53;;;;;;;12.93;11.63;;;;;;;18.60;71.31;99776.61;253052;1107;115031;-68
2021/09/25 11:37:59;;;;;;;13.67;12.20;;;;;;;18.79;71.79;99771.26;252846;1107;115809;-69
2021/09/25 11:43:06;;;;;;;10.13;9.23;;;;;;;18.88;72.16;99774.14;252735;1107;115692;-68
2021/09/25 11:48:14;;;;;;;15.73;12.30;;;;;;;18.99;72.10;99765.60;253083;1107;115987;-68
2021/09/25 11:53:22;;;;;;;12.38;11.08;;;;;;;19.05;72.12;99769.85;254910;1107;114970;-67
2021/09/25 11:58:27;;;;;;;10.70;9.70;;;;;;;19.20;72.03;99776.17;255113;1107;115256;-68
2021/09/25 12:03:38;;;;;;;9.90;8.80;;;;;;;19.35;72.11;99773.25;253651;1106;114951;-68
2021/09/25 12:08:41;;;;;;;10.28;9.18;;;;;;;19.59;71.97;99778.60;253254;1106;114802;-69
2021/09/25 12:13:45;;;;;;;11.60;8.50;;;;;;;19.63;71.71;99774.22;253102;1107;115252;-67
2021/09/25 12:18:51;;;;;;;12.68;9.50;;;;;;;19.49;71.26;99782.25;253996;1107;115783;-70
2021/09/25 12:24:05;;;;;;;;;;;;;;;19.47;71.32;99792.55;255183;1106;115425;-70
2021/09/25 12:29:14;;;;;;;8.93;8.15;;;;;;;19.42;71.71;99795.31;254735;1101;193402;-68
2021/09/25 12:34:24;;;;;;;11.65;8.80;;;;;;;19.20;71.22;99792.38;253094;1107;115227;-69
2021/09/25 12:39:30;;;;;;;7.50;6.88;;;;;;;19.00;71.29;99798.82;252926;1107;115070;-68
2021/09/25 12:44:39;;;;;;;8.43;7.78;;;;;;;18.88;71.64;99801.95;253203;1107;115754;-69
2021/09/25 12:49:44;;;;;;;10.58;7.73;;;;;;;18.79;71.73;99792.86;256102;1106;115523;-71
2021/09/25 12:54:50;;;;;;;8.48;7.70;;;;;;;18.78;71.54;99799.35;256133;1107;117188;-68
2021/09/25 13:00:01;;;;;;;11.58;8.05;;;;;;;18.74;71.84;99798.31;255886;1106;115374;-68
2021/09/25 13:05:09;;;;;;;7.90;7.20;;;;;;;18.70;71.79;99799.97;253082;1107;115832;-70
2021/09/25 13:10:25;;;;;;;8.05;7.35;;;;;;;18.76;72.05;99806.94;256192;1107;115965;-67
2021/09/25 13:15:39;;;;;;;15.93;8.53;;;;;;;18.76;72.05;99804.23;253395;1102;115619;-70
2021/09/25 13:20:43;;;;;;;11.30;8.33;;;;;;;18.73;72.02;99808.31;254570;1107;115624;-68
2021/09/25 13:25:46;;;;;;;11.10;8.23;;;;;;;18.74;72.24;99804.52;253568;1107;117059;-68
2021/09/25 13:30:51;;;;;;;8.03;7.30;;;;;;;18.74;72.31;99804.52;253759;1107;115883;-68
2021/09/25 13:35:54;;;;;;;10.20;8.53;;;;;;;18.72;72.41;99811.30;254866;1107;115756;-67
2021/09/25 13:40:59;;;;;;;8.75;8.05;;;;;;;18.80;72.73;99810.67;254447;1107;115589;-67
2021/09/25 13:46:03;;;;;;;8.20;6.18;;;;;;;18.71;72.13;99813.19;253796;1107;116073;-67
2021/09/25 13:51:06;;;;;;;7.75;6.95;;;;;;;18.65;72.25;99813.55;253498;1107;116421;-68
2021/09/25 13:56:09;;;;;;;7.18;6.48;;;;;;;18.66;72.40;99813.23;253713;1107;116246;-68
2021/09/25 14:01:13;;;;;;;5.53;4.85;;;;;;;18.68;72.46;99818.35;254834;1107;136942;-68
2021/09/25 14:06:18;;;;;;;6.68;6.15;;;;;;;18.68;72.54;99821.86;253992;1102;115925;-68
2021/09/25 14:11:22;;;;;;;6.63;5.95;;;;;;;18.76;72.33;99817.73;253468;1107;116156;-68
2021/09/25 14:16:29;;;;;;;5.35;4.90;;;;;;;18.76;72.00;99832.05;254557;1107;116627;-67
2021/09/25 14:21:41;;;;;;;5.33;4.93;;;;;;;18.79;72.14;99836.88;253490;1107;115845;-67
2021/09/25 14:26:50;;;;;;;7.10;5.40;;;;;;;18.75;71.95;99835.84;253591;1107;115722;-67
2021/09/25 14:32:19;;;;;;;9.98;6.13;;;;;;;18.68;71.67;99839.95;254970;1107;116124;-68
2021/09/25 14:37:26;;;;;;;6.33;5.28;;;;;;;18.60;71.92;99843.30;253283;1107;116588;-67
2021/09/25 14:42:30;;;;;;;5.78;5.28;;;;;;;18.57;71.75;99858.14;252640;1107;116753;-70
2021/09/25 14:47:33;;;;;;;7.63;4.63;;;;;;;18.59;71.83;99857.86;255307;1107;115528;-68
2021/09/25 14:52:36;;;;;;;9.53;5.03;;;;;;;18.61;71.70;99853.01;256406;1107;116546;-68
2021/09/25 14:57:39;;;;;;;4.70;4.33;;;;;;;18.65;71.93;99854.83;256039;1107;116375;-67
2021/09/25 15:02:43;;;;;;;5.48;4.45;;;;;;;18.69;71.24;99847.77;256099;1106;116986;-67
2021/09/25 15:07:49;;;;;;;4.43;4.03;;;;;;;18.73;71.48;99861.52;256112;1107;116038;-69
2021/09/25 15:12:54;;;;;;;5.33;4.60;;;;;;;18.79;71.14;99852.27;256101;1107;116894;-67
2021/09/25 15:17:57;;;;;;;8.20;4.88;;;;;;;18.75;71.08;99854.73;255130;1107;115882;-67
2021/09/25 15:22:59;;;;;;;4.93;4.40;;;;;;;18.67;71.19;99854.55;253119;1107;115614;-70
2021/09/25 15:28:03;;;;;;;6.70;5.50;;;;;;;18.63;71.35;99864.33;255256;1107;116927;-70
2021/09/25 15:33:12;;;;;;;6.80;5.33;;;;;;;18.64;71.43;99866.75;253219;1101;115663;-68
2021/09/25 15:38:15;;;;;;;4.80;4.40;;;;;;;18.60;71.44;99881.09;254609;1106;115880;-68
2021/09/25 15:43:19;;;;;;;6.23;5.53;;;;;;;18.55;71.59;99881.91;254415;1107;116188;-68
2021/09/25 15:48:25;;;;;;;11.55;6.73;;;;;;;18.49;71.69;99888.44;253605;1106;115827;-68
2021/09/25 15:53:29;;;;;;;7.23;6.53;;;;;;;18.44;71.60;99891.98;255073;1107;119167;-68
2021/09/25 15:58:34;;;;;;;9.03;5.75;;;;;;;18.41;71.85;99892.55;253686;1101;117342;-67
2021/09/25 16:03:37;;;;;;;7.73;6.05;;;;;;;18.35;71.96;99904.46;253736;1107;115523;-68
2021/09/25 16:08:41;;;;;;;6.30;5.78;;;;;;;18.30;71.92;99907.22;254172;1107;115438;-68
2021/09/25 16:13:45;;;;;;;6.03;5.40;;;;;;;18.29;72.04;99905.61;253745;1107;114984;-67
2021/09/25 16:18:51;;;;;;;7.80;6.00;;;;;;;18.24;71.68;99913.73;253739;1107;115328;-66
2021/09/25 16:23:55;;;;;;;8.43;5.93;;;;;;;18.16;72.39;99914.33;253503;1103;116307;-67
2021/09/25 16:28:59;;;;;;;10.60;6.45;;;;;;;18.11;72.25;99919.75;254623;1107;116946;-66
2021/09/25 16:34:02;;;;;;;7.63;6.50;;;;;;;18.04;72.62;99922.75;254189;1107;115925;-68
2021/09/25 16:39:10;;;;;;;;;;;;;;;18.00;72.54;99929.81;253340;1107;115579;-68
2021/09/25 16:44:13;;;;;;;8.83;7.15;;;;;;;17.97;73.02;99935.77;256144;1103;103080;-71
2021/09/25 16:49:16;;;;;;;10.10;8.20;;;;;;;17.92;72.98;99937.67;253016;1102;115838;-69
2021/09/25 16:54:18;;;;;;;7.12;6.28;;;;;;;17.92;72.92;99941.18;254704;1107;116441;-68
2021/09/25 16:59:22;;;;;;;8.23;7.43;;;;;;;17.95;72.92;99937.13;255783;1107;116288;-69
2021/09/25 17:04:25;;;;;;;9.28;8.33;;;;;;;17.91;73.11;99936.87;253282;1101;115850;-69
2021/09/25 17:09:28;;;;;;;10.58;8.15;;;;;;;17.86;73.18;99949.57;252991;1107;115258;-67
2021/09/25 17:14:33;;;;;;;7.50;6.85;;;;;;;17.78;73.08;99950.94;256058;1106;115518;-67
2021/09/25 17:19:37;;;;;;;10.08;6.65;;;;;;;17.72;73.18;99955.58;256140;1106;116368;-68
2021/09/25 17:24:45;;;;;;;8.78;5.70;;;;;;;17.73;73.14;99964.47;256034;1107;116185;-67
2021/09/25 17:29:49;;;;;;;8.28;6.18;;;;;;;17.69;73.37;99956.13;254935;1107;115488;-68
2021/09/25 17:34:55;;;;;;;11.53;6.08;;;;;;;17.67;73.72;99971.77;255727;1107;115459;-68
2021/09/25 17:40:00;;;;;;;7.00;5.73;;;;;;;17.71;73.70;99977.42;255076;1107;117392;-70
2021/09/25 17:45:04;;;;;;;6.98;6.38;;;;;;;17.66;73.51;99977.44;253785;1107;116344;-68
2021/09/25 17:50:11;;;;;;;8.03;6.43;;;;;;;17.61;73.89;99978.23;254484;1107;115570;-68
2021/09/25 17:55:15;;;;;;;11.05;6.98;;;;;;;17.61;73.93;99989.01;253929;1107;115223;-67
2021/09/25 18:00:19;;;;;;;14.60;8.53;;;;;;;17.53;73.61;99994.14;254955;1107;115441;-66
2021/09/25 18:05:32;;;;;;;10.23;9.00;;;;;;;17.41;73.89;99986.38;254145;1107;116582;-67
2021/09/25 18:10:36;;;;;;;11.55;9.15;;;;;;;17.42;74.27;99996.89;254278;1106;115188;-68
2021/09/25 18:15:39;;;;;;;9.10;7.67;;;;;;;17.45;74.37;100003.59;253334;1107;115515;-69
2021/09/25 18:20:53;;;;;;;16.18;11.05;;;;;;;17.44;74.29;100015.45;254477;1107;118460;-68
2021/09/25 18:25:57;;;;;;;11.48;10.25;;;;;;;17.37;74.40;100009.56;254441;1103;116491;-67
2021/09/25 18:31:04;;;;;;;14.28;9.75;;;;;;;17.33;74.55;100019.27;254174;1107;117353;-68
2021/09/25 18:36:07;;;;;;;13.25;10.43;;;;;;;17.32;74.52;100012.26;253924;1103;115570;-67
2021/09/25 18:41:13;;;;;;;11.93;9.37;;;;;;;17.32;74.72;100023.04;256164;1107;115850;-67
2021/09/25 18:46:17;;;;;;;11.98;10.05;;;;;;;17.33;74.67;100021.96;255111;1106;117693;-67
2021/09/25 18:51:21;;;;;;;14.78;9.33;;;;;;;17.31;74.73;100026.81;255359;1106;118679;-67
2021/09/25 18:56:24;;;;;;;11.33;9.25;;;;;;;17.32;74.87;100033.81;255583;1107;115471;-69
2021/09/25 19:01:28;;;;;;;12.13;9.33;;;;;;;17.32;75.12;100031.13;252889;1107;115345;-69
2021/09/25 19:06:35;;;;;;;15.70;9.40;;;;;;;17.32;75.01;100041.90;256044;1107;115201;-69
2021/09/25 19:11:38;;;;;;;17.20;11.40;;;;;;;17.34;75.15;100045.13;256038;1107;115265;-69
2021/09/25 19:16:43;;;;;;;15.40;10.38;;;;;;;17.36;74.65;100041.09;256050;1107;117825;-69
2021/09/25 19:22:10;;;;;;;11.67;9.47;;;;;;;17.37;75.21;100055.38;253748;1107;115755;-68
2021/09/25 19:27:17;;;;;;;18.35;10.35;;;;;;;17.43;75.32;100057.77;256074;1106;115839;-69
2021/09/25 19:32:41;;;;;;;12.73;10.58;;;;;;;17.44;75.17;100069.35;254593;1103;118423;-68
2021/09/25 19:37:45;;;;;;;16.45;10.40;;;;;;;17.44;75.41;100063.96;254157;1107;116176;-68
2021/09/25 19:42:50;;;;;;;17.85;10.45;;;;;;;17.41;75.31;100073.42;253302;1107;115519;-69
2021/09/25 19:47:54;;;;;;;14.28;11.40;;;;;;;17.39;75.52;100067.50;253222;1107;115903;-69
2021/09/25 19:53:09;;;;;;;18.58;10.30;;;;;;;17.35;75.26;100065.61;254270;1100;116117;-69
2021/09/25 19:58:24;;;;;;;13.75;10.83;;;;;;;17.31;75.44;100070.73;254692;1107;115443;-71
2021/09/25 20:03:28;;;;;;;20.25;12.03;;;;;;;17.30;75.46;100074.50;253078;1107;115222;-70
2021/09/25 20:08:33;;;;;;;17.18;11.38;;;;;;;17.30;75.24;100077.20;254723;1102;116174;-68
2021/09/25 20:13:39;;;;;;;23.58;17.55;;;;;;;17.34;75.91;100088.25;253116;1107;116250;-68
2021/09/25 20:18:47;;;;;;;18.40;11.18;;;;;;;17.34;75.74;100088.25;253542;1106;115925;-68
2021/09/25 20:23:55;;;;;;;14.68;12.28;;;;;;;17.28;75.60;100084.73;254287;1103;116166;-69
2021/09/25 20:29:00;;;;;;;15.20;11.68;;;;;;;17.27;75.70;100090.40;253239;1107;115314;-68
2021/09/25 20:34:09;;;;;;;20.18;11.65;;;;;;;17.26;75.89;100094.98;253374;1107;116985;-69
2021/09/25 20:39:14;;;;;;;13.78;11.00;;;;;;;17.29;75.89;100096.33;254875;1107;115768;-69
2021/09/25 20:44:19;;;;;;;14.03;10.23;;;;;;;17.28;75.90;100103.60;253565;1106;117595;-70
2021/09/25 20:49:29;;;;;;;11.90;10.65;;;;;;;17.26;75.93;100107.64;253476;1107;117091;-68
2021/09/25 20:54:36;;;;;;;;;;;;;;;17.17;75.94;100099.28;253460;1107;116211;-69
2021/09/25 20:59:48;;;;;;;14.78;11.23;;;;;;;17.10;76.04;100098.77;255913;1106;102947;-71
2021/09/25 21:04:52;;;;;;;13.40;10.78;;;;;;;17.10;75.97;100094.18;253501;1102;115925;-68
2021/09/25 21:09:57;;;;;;;12.53;10.55;;;;;;;17.15;76.71;100104.13;255495;1101;115797;-70
2021/09/25 21:15:00;;;;;;;15.95;11.13;;;;;;;17.15;76.41;100106.82;256148;1107;116101;-69
2021/09/25 21:20:10;;;;;;;19.40;11.38;;;;;;;17.13;76.34;100115.16;256070;1107;116082;-69
2021/09/25 21:25:15;;;;;;;13.10;11.53;;;;;;;17.17;76.45;100118.94;256067;1106;117851;-69
2021/09/25 21:30:19;;;;;;;12.03;10.23;;;;;;;17.22;76.39;100111.95;254706;1107;116203;-68
2021/09/25 21:35:23;;;;;;;14.90;11.08;;;;;;;17.25;76.46;100120.30;253270;1106;117582;-68
2021/09/25 21:40:26;;;;;;;16.73;10.68;;;;;;;17.25;76.41;100114.11;256298;1107;116318;-69
2021/09/25 21:45:30;;;;;;;14.00;10.13;;;;;;;17.23;76.41;100108.98;255395;1107;117460;-68
2021/09/25 21:50:36;;;;;;;13.65;10.43;;;;;;;17.21;76.30;100116.52;254233;1107;116459;-69
2021/09/25 21:55:39;;;;;;;17.20;9.93;;;;;;;17.20;76.52;100124.88;253417;1100;116282;-69
2021/09/25 22:00:50;;;;;;;10.73;9.63;;;;;;;17.17;76.41;100128.91;253797;1107;117199;-68
2021/09/25 22:05:55;;;;;;;12.28;10.30;;;;;;;17.14;76.74;100130.25;254397;1107;115623;-68
2021/09/25 22:11:03;;;;;;;14.85;12.13;;;;;;;17.12;76.49;100137.02;253798;1102;116078;-68
2021/09/25 22:16:07;;;;;;;12.50;10.77;;;;;;;17.08;76.41;100141.31;253216;1101;115790;-68
2021/09/25 22:21:14;;;;;;;13.18;11.60;;;;;;;17.05;76.36;100142.66;253905;1107;116257;-67
2021/09/25 22:26:19;;;;;;;13.23;10.83;;;;;;;17.00;76.72;100145.34;253838;1107;116225;-68
2021/09/25 22:31:22;;;;;;;14.48;10.58;;;;;;;16.99;76.94;100149.10;254051;1107;116326;-67
2021/09/25 22:36:32;;;;;;;11.93;10.73;;;;;;;16.98;77.00;100147.48;253204;1102;116382;-71
2021/09/25 22:41:36;;;;;;;12.70;11.35;;;;;;;16.93;76.77;100166.32;253731;1107;115146;-67
2021/09/25 22:46:40;;;;;;;12.17;10.53;;;;;;;16.90;76.61;100156.08;253548;1107;115647;-70
2021/09/25 22:51:43;;;;;;;14.53;11.73;;;;;;;16.91;77.17;100154.20;253230;1107;115584;-71
2021/09/25 22:56:46;;;;;;;12.88;10.83;;;;;;;16.88;77.06;100157.41;253457;1107;115830;-69
2021/09/25 23:01:50;;;;;;;11.65;10.08;;;;;;;16.87;77.05;100169.26;253187;1106;117267;-69
2021/09/25 23:06:54;;;;;;;14.10;10.00;;;;;;;16.82;77.04;100165.47;254292;1107;115688;-70